NEDK1: Verdigris River, Neodesha Ks

Data processed at Wed May 22 2019 23:50


All information presented herein is the property of the government of the United States of America and may be revised or deleted at any time without prior notice.
Dissemination of this information without the expressed written consent of the Public Affairs Office, Tulsa District U.S. Army Corps of Engineers is strictly prohibited.
These data are gathered electronically and, as presented, have not undergone any form of quality control. These data are not guaranteed to be valid or correct.
Go to home page.
Go to station list.
Go to home page.

Upstream stations:

Downstream station:
Previous Day
Next Day
Current Day
    
SHEF ID:       NEDK1     Verdigris River, Neodesha Ks
STATION TYPE:  

               PRECIP     STAGE  RIV-FLOW   VOLTAGE  BAT-LOAD
                   in        ft       cfs      volt      volt
              Ccp-Rev   Ccp-Rev   Ccp-Rev   Ccp-Rev   Ccp-Rev
(US/Central)
05/22 00:00      0.00     39.05     28243     12.65     12.65
05/22 01:00      0.00     39.04     28197     12.65     12.65
05/22 02:00      0.00     39.02     28104     12.65     12.65
05/22 03:00      0.00     39.01     28057     12.65     12.57
05/22 04:00      0.00     39.00     28011     12.57     12.57
05/22 05:00      0.00     39.00     28011     12.57     12.57
05/22 06:00      0.00     38.98     27918     12.57     12.57
05/22 07:00      0.00     38.96     27826     12.57     12.57
05/22 08:00      0.00     38.88     27459     12.73     12.57
05/22 09:00      0.00     38.90     27551     13.44     13.21
05/22 10:00      0.00     38.79     27051     13.44     13.37
05/22 11:00      0.00     38.75     26872     13.53     13.44
05/22 12:00      0.00     38.66     26471     13.60     13.44
05/22 13:00      0.00     38.55     25987     13.21     13.29
05/22 14:00      0.00     38.49     25726     13.53     13.37
05/22 15:00      0.00     38.38     25254     13.76     13.29
05/22 16:00      0.00     38.30     24914     13.21     13.29
05/22 17:00      0.00     38.20     24247     13.21     12.89
05/22 18:00      0.01     38.10     23535     13.13     13.21
05/22 19:00      0.00     37.98     22705     13.05     12.97
05/22 20:00      0.00     37.88     22079     12.81     12.89
05/22 21:00      0.09     37.80     21642     12.73     12.73
05/22 22:00      0.11     37.72     21213     12.73     12.73
05/22 23:00      0.00     37.61     20635     12.73     12.65